Time;durP1;ratioP1;P1;durP2;ratioP2;P2;SDS_P1;SDS_P2;PMS_P1;PMS_P2;Temp;Humidity;BMP_temperature;BMP_pressure;BME280_temperature;BME280_humidity;BME280_pressure;Samples;Min_cycle;Max_cycle;Signal;HPM_P1;HPM_P2
2023/06/19 00:01:59;;;;;;;1999.90;999.90;;;;;;;20.15;100.00;95030.63;5043180;28;20194;-61
2023/06/19 00:04:25;;;;;;;1999.90;999.90;;;;;;;20.12;100.00;95032.34;5042997;28;20220;-62
2023/06/19 00:06:50;;;;;;;1999.90;999.90;;;;;;;20.21;100.00;95037.81;5043350;28;20216;-61
2023/06/19 00:09:17;;;;;;;1999.90;999.90;;;;;;;20.29;100.00;95039.00;5043836;28;20221;-63
2023/06/19 00:11:42;;;;;;;1999.90;999.90;;;;;;;20.35;100.00;95031.56;5043496;28;20232;-62
2023/06/19 00:14:07;;;;;;;1999.90;999.90;;;;;;;20.27;100.00;95033.16;5043570;28;20206;-62
2023/06/19 00:16:33;;;;;;;1999.90;999.90;;;;;;;20.18;100.00;95027.69;5047537;28;20174;-62
2023/06/19 00:18:58;;;;;;;1999.90;999.90;;;;;;;20.20;100.00;95025.22;5046670;28;20281;-62
2023/06/19 00:21:25;;;;;;;1999.90;999.90;;;;;;;20.20;100.00;95032.75;5047215;28;20198;-62
2023/06/19 00:23:51;;;;;;;1999.90;999.90;;;;;;;20.25;100.00;95029.34;5131536;22;20236;-57
2023/06/19 00:28:45;;;;;;;1999.90;999.90;;;;;;;20.29;100.00;95024.38;5046836;28;20257;-70
2023/06/19 00:34:32;;;;;;;1999.90;999.90;;;;;;;20.14;100.00;95024.31;5113842;22;20343;-58
2023/06/19 00:36:58;;;;;;;1999.90;999.90;;;;;;;20.15;100.00;95020.31;5086551;28;20200;-58
2023/06/19 00:39:24;;;;;;;1999.90;999.90;;;;;;;20.18;100.00;95024.91;5086574;28;20204;-58
2023/06/19 00:41:51;;;;;;;1999.90;999.90;;;;;;;20.23;100.00;95021.50;5086817;28;20200;-58
2023/06/19 00:44:17;;;;;;;1999.90;999.90;;;;;;;20.27;100.00;95022.06;5087055;28;20200;-59
2023/06/19 00:46:42;;;;;;;1999.90;999.90;;;;;;;20.35;100.00;95023.22;5086962;28;20193;-59
2023/06/19 00:49:08;;;;;;;1999.90;999.90;;;;;;;20.41;100.00;95024.13;5086695;28;20185;-59
2023/06/19 00:51:34;;;;;;;1999.90;999.90;;;;;;;20.43;100.00;95023.63;5086241;28;20189;-59
2023/06/19 00:53:59;;;;;;;1999.90;999.90;;;;;;;20.42;100.00;95022.88;5086327;28;20217;-60
2023/06/19 00:56:25;;;;;;;1999.90;999.90;;;;;;;20.43;100.00;95021.63;5086255;28;20205;-59
2023/06/19 00:58:52;;;;;;;1999.90;999.90;;;;;;;20.41;100.00;95026.88;5086364;28;20205;-59
2023/06/19 01:01:19;;;;;;;1999.90;999.90;;;;;;;20.43;100.00;95034.75;5086161;28;20197;-60
2023/06/19 01:03:44;;;;;;;1999.90;999.90;;;;;;;20.45;100.00;95033.00;5086190;28;20280;-59
2023/06/19 01:06:15;;;;;;;1999.90;999.90;;;;;;;20.42;100.00;95039.50;5086063;28;20201;-59
2023/06/19 01:08:51;;;;;;;1999.90;999.90;;;;;;;20.43;100.00;95035.47;5086434;28;20239;-59
2023/06/19 01:11:21;;;;;;;1999.90;999.90;;;;;;;20.43;100.00;95027.16;5086292;28;20245;-60
2023/06/19 01:13:54;;;;;;;1999.90;999.90;;;;;;;20.49;100.00;95038.38;5085953;28;20223;-59
2023/06/19 01:16:21;;;;;;;1999.90;999.90;;;;;;;20.47;100.00;95036.06;5086413;28;20256;-60
2023/06/19 01:18:46;;;;;;;1999.90;999.90;;;;;;;20.50;100.00;95035.13;5085971;28;20465;-59
2023/06/19 01:21:14;;;;;;;1999.90;999.90;;;;;;;20.50;100.00;95035.13;5189293;22;20274;-59
2023/06/19 01:23:40;;;;;;;1999.90;999.90;;;;;;;20.49;100.00;95025.28;5087072;28;20196;-60
2023/06/19 01:26:07;;;;;;;1999.90;999.90;;;;;;;20.58;100.00;95030.72;5086732;28;20228;-60
2023/06/19 01:28:33;;;;;;;1999.90;999.90;;;;;;;20.53;100.00;95039.72;5085650;28;20196;-60
2023/06/19 01:31:01;;;;;;;1999.90;999.90;;;;;;;20.58;100.00;95036.28;5085989;28;20201;-60
2023/06/19 01:33:31;;;;;;;1999.90;999.90;;;;;;;20.62;100.00;95034.09;5085764;28;20233;-59
2023/06/19 01:35:57;;;;;;;1999.90;999.90;;;;;;;20.66;100.00;95031.91;5085455;28;20371;-60
2023/06/19 01:38:26;;;;;;;1999.90;999.90;;;;;;;20.65;100.00;95035.91;5085368;28;20227;-60
2023/06/19 01:43:18;;;;;;;1999.90;999.90;;;;;;;20.60;100.00;95042.13;5106129;23;20294;-59
2023/06/19 01:45:43;;;;;;;1999.90;999.90;;;;;;;20.61;100.00;95037.34;5085564;28;20205;-60
2023/06/19 01:48:09;;;;;;;1999.90;999.90;;;;;;;20.62;100.00;95042.44;5085292;28;20200;-60
2023/06/19 01:50:34;;;;;;;1999.90;999.90;;;;;;;20.65;100.00;95040.69;5085811;28;20264;-59
2023/06/19 01:53:00;;;;;;;1999.90;999.90;;;;;;;20.65;100.00;95035.91;5085117;28;20258;-59
2023/06/19 01:55:25;;;;;;;1999.90;999.90;;;;;;;20.64;100.00;95031.59;5085959;28;20287;-59
2023/06/19 01:57:51;;;;;;;1999.90;999.90;;;;;;;20.61;100.00;95035.31;5084885;28;20267;-59
2023/06/19 02:00:17;;;;;;;1999.90;999.90;;;;;;;20.58;100.00;95047.38;5085115;28;20197;-59
2023/06/19 02:02:42;;;;;;;1999.90;999.90;;;;;;;20.57;100.00;95031.97;5085095;28;20319;-59
2023/06/19 02:05:08;;;;;;;1999.90;999.90;;;;;;;20.57;100.00;95034.75;5085190;28;20201;-59
2023/06/19 02:07:33;;;;;;;1999.90;999.90;;;;;;;20.56;100.00;95038.78;5085139;28;20193;-59
2023/06/19 02:09:58;;;;;;;1999.90;999.90;;;;;;;20.50;100.00;95039.91;5085089;28;20239;-59
2023/06/19 02:17:46;;;;;;;1999.90;999.90;;;;;;;20.48;100.00;95039.63;5044712;28;20218;-59
2023/06/19 02:20:11;;;;;;;1999.90;999.90;;;;;;;20.51;100.00;95039.44;5028013;28;20230;-60
2023/06/19 02:25:20;;;;;;;1999.90;999.90;;;;;;;20.51;100.00;95045.00;5196245;22;20227;-65
2023/06/19 02:27:46;;;;;;;1999.90;999.90;;;;;;;20.54;100.00;95037.72;5084996;28;20224;-65
2023/06/19 02:30:11;;;;;;;1999.90;999.90;;;;;;;20.57;100.00;95034.75;5085262;28;20193;-65
2023/06/19 02:32:37;;;;;;;1999.90;999.90;;;;;;;20.59;100.00;95039.81;5084303;28;20192;-65
2023/06/19 02:35:06;;;;;;;1999.90;999.90;;;;;;;20.60;100.00;95047.69;5084528;28;20193;-65
2023/06/19 02:37:31;;;;;;;1999.90;999.90;;;;;;;20.61;100.00;95040.13;5084076;28;20193;-65
2023/06/19 02:39:57;;;;;;;1999.90;999.90;;;;;;;20.61;100.00;95040.88;5084459;28;20216;-66
2023/06/19 02:42:22;;;;;;;1999.90;999.90;;;;;;;20.61;100.00;95035.31;5084314;28;20195;-65
2023/06/19 02:44:48;;;;;;;1999.90;999.90;;;;;;;20.59;100.00;95034.28;5084283;28;20193;-65
2023/06/19 02:47:13;;;;;;;1999.90;999.90;;;;;;;20.55;100.00;95040.03;5084302;28;20189;-65
2023/06/19 02:49:38;;;;;;;1999.90;999.90;;;;;;;20.53;100.00;95048.03;5084391;28;20235;-65
2023/06/19 02:52:04;;;;;;;1999.90;999.90;;;;;;;20.45;100.00;95049.66;5084087;28;20204;-65
2023/06/19 02:54:30;;;;;;;1999.90;999.90;;;;;;;20.39;100.00;95039.72;5084348;28;20235;-65
2023/06/19 02:56:55;;;;;;;1999.90;999.90;;;;;;;20.29;100.00;95047.31;5084133;28;20192;-65
2023/06/19 02:59:20;;;;;;;1999.90;999.90;;;;;;;20.20;100.00;95044.63;5084230;28;20193;-66
2023/06/19 03:01:46;;;;;;;1999.90;999.90;;;;;;;20.12;100.00;95049.00;5084050;28;20195;-65
2023/06/19 03:04:12;;;;;;;1999.90;999.90;;;;;;;20.14;100.00;95040.97;5083982;28;20203;-65
2023/06/19 03:06:39;;;;;;;1999.90;999.90;;;;;;;20.16;100.00;95038.50;5084157;28;20219;-67
2023/06/19 03:09:11;;;;;;;1999.90;999.90;;;;;;;20.15;100.00;95041.72;5084461;28;20223;-68
2023/06/19 03:11:37;;;;;;;1999.90;999.90;;;;;;;20.13;100.00;95044.19;5084333;28;20206;-66
2023/06/19 03:14:07;;;;;;;1999.90;999.90;;;;;;;20.05;100.00;95038.22;5084252;28;20221;-66
2023/06/19 03:16:32;;;;;;;1999.90;999.90;;;;;;;20.04;100.00;95039.47;5084211;28;20193;-65
2023/06/19 03:18:58;;;;;;;1999.90;999.90;;;;;;;20.05;100.00;95043.00;5084187;28;20193;-66
2023/06/19 03:21:23;;;;;;;1999.90;999.90;;;;;;;20.08;100.00;95053.94;5143683;23;20205;-70
2023/06/19 03:29:37;;;;;;;1999.90;999.90;;;;;;;20.18;100.00;95063.72;5043532;28;20218;-59
2023/06/19 03:32:03;;;;;;;1999.90;999.90;;;;;;;20.20;100.00;95061.25;5043649;28;20225;-61
2023/06/19 03:39:24;;;;;;;1999.90;999.90;;;;;;;20.28;100.00;95070.75;5043398;28;20264;-67
2023/06/19 03:41:50;;;;;;;1999.90;999.90;;;;;;;20.30;100.00;95078.59;5026916;28;20278;-66
2023/06/19 03:44:15;;;;;;;1999.90;999.90;;;;;;;20.31;100.00;95075.34;5026951;28;20170;-67
2023/06/19 03:46:40;;;;;;;1999.90;999.90;;;;;;;20.35;100.00;95081.50;5027490;28;20198;-68
2023/06/19 03:49:06;;;;;;;1999.90;999.90;;;;;;;20.37;100.00;95081.78;5043872;28;20247;-68
2023/06/19 03:51:32;;;;;;;1999.90;999.90;;;;;;;20.39;100.00;95092.41;5030896;28;20211;-67
2023/06/19 03:53:57;;;;;;;1999.90;999.90;;;;;;;20.38;100.00;95091.63;5031014;28;20245;-68
2023/06/19 03:56:23;;;;;;;1999.90;999.90;;;;;;;20.40;100.00;95091.91;5030876;28;20198;-67
2023/06/19 03:58:48;;;;;;;1999.90;999.90;;;;;;;20.41;100.00;95093.47;5047351;28;20241;-67
2023/06/19 04:01:14;;;;;;;1999.90;999.90;;;;;;;20.44;100.00;95097.31;5030578;28;20202;-67
2023/06/19 04:03:39;;;;;;;1999.90;999.90;;;;;;;20.45;100.00;95099.59;5030797;28;20202;-67
2023/06/19 04:06:04;;;;;;;1999.90;999.90;;;;;;;20.47;100.00;95102.66;5047297;28;20269;-67
2023/06/19 04:08:30;;;;;;;1999.90;999.90;;;;;;;20.48;100.00;95104.22;5098210;22;20233;-59
2023/06/19 04:10:55;;;;;;;1999.90;999.90;;;;;;;20.51;100.00;95106.03;5103107;22;20251;-57
2023/06/19 04:13:20;;;;;;;1999.90;999.90;;;;;;;20.51;100.00;95105.28;5087319;28;20205;-56
2023/06/19 04:15:47;;;;;;;1999.90;999.90;;;;;;;20.51;100.00;95103.28;5087304;28;20207;-57
2023/06/19 04:18:12;;;;;;;1999.90;999.90;;;;;;;20.51;100.00;95103.28;5087191;28;20199;-57
2023/06/19 04:20:40;;;;;;;1999.90;999.90;;;;;;;20.58;100.00;95110.47;5086989;28;20197;-57
2023/06/19 04:23:05;;;;;;;1999.90;999.90;;;;;;;20.61;100.00;95118.59;5087337;28;20215;-57
2023/06/19 04:25:30;;;;;;;1999.90;999.90;;;;;;;20.64;100.00;95117.63;5087248;28;20197;-57
2023/06/19 04:27:56;;;;;;;1999.90;999.90;;;;;;;20.67;100.00;95122.25;5086905;28;20201;-57
2023/06/19 04:30:21;;;;;;;1999.90;999.90;;;;;;;20.67;100.00;95118.69;5086872;28;20314;-56
2023/06/19 04:32:47;;;;;;;1999.90;999.90;;;;;;;20.69;100.00;95130.84;5103462;28;20228;-55
2023/06/19 04:35:12;;;;;;;1999.90;999.90;;;;;;;20.70;100.00;95126.06;5086350;28;20197;-56
2023/06/19 04:37:37;;;;;;;1999.90;999.90;;;;;;;20.68;100.00;95121.00;5103777;28;20269;-56
2023/06/19 04:40:04;;;;;;;1999.90;999.90;;;;;;;20.65;100.00;95130.28;5086728;28;20215;-57
2023/06/19 04:42:29;;;;;;;1999.90;999.90;;;;;;;20.66;100.00;95126.28;5086568;28;20200;-56
2023/06/19 04:44:56;;;;;;;1999.90;999.90;;;;;;;20.69;100.00;95130.09;5086645;28;20193;-57
2023/06/19 04:50:24;;;;;;;1999.90;999.90;;;;;;;20.75;100.00;95134.50;5156038;22;20236;-62
2023/06/19 04:52:50;;;;;;;1999.90;999.90;;;;;;;20.77;100.00;95148.69;5086475;28;20205;-63
2023/06/19 04:55:15;;;;;;;1999.90;999.90;;;;;;;20.80;100.00;95152.53;5086312;28;20199;-63
2023/06/19 04:57:41;;;;;;;1999.90;999.90;;;;;;;20.81;100.00;95165.94;5086374;28;20220;-62
2023/06/19 05:03:00;;;;;;;1999.90;999.90;;;;;;;20.83;100.00;95169.00;5139903;22;20239;-61
2023/06/19 05:05:27;;;;;;;1999.90;999.90;;;;;;;20.81;100.00;95165.94;5087632;28;20185;-63
2023/06/19 05:07:52;;;;;;;1999.90;999.90;;;;;;;20.86;100.00;95173.59;5085743;28;20192;-62
2023/06/19 05:10:19;;;;;;;1999.90;999.90;;;;;;;20.95;100.00;95178.34;5086570;28;20228;-62
2023/06/19 05:12:44;;;;;;;1999.90;999.90;;;;;;;21.05;100.00;95168.69;5085744;28;20216;-62
2023/06/19 05:15:10;;;;;;;1999.90;999.90;;;;;;;21.13;100.00;95181.72;5085857;28;20247;-62
2023/06/19 05:17:38;;;;;;;1999.90;999.90;;;;;;;21.21;100.00;95185.69;5085633;28;20201;-62
2023/06/19 05:20:07;;;;;;;1999.90;999.90;;;;;;;21.31;100.00;95184.31;5085986;28;20196;-62
2023/06/19 05:22:34;;;;;;;1999.90;999.90;;;;;;;21.38;100.00;95186.72;5085547;28;20199;-63
2023/06/19 05:25:00;;;;;;;1999.90;999.90;;;;;;;21.48;100.00;95190.19;5102614;28;20233;-62
2023/06/19 05:27:25;;;;;;;1999.90;999.90;;;;;;;21.51;100.00;95176.13;5085463;28;20197;-62
2023/06/19 05:29:50;;;;;;;1999.90;999.90;;;;;;;21.58;100.00;95186.84;5085415;28;20229;-64
2023/06/19 05:32:16;;;;;;;1999.90;999.90;;;;;;;21.65;100.00;95182.91;5085835;28;20189;-63
2023/06/19 05:34:41;;;;;;;1999.90;999.90;;;;;;;21.73;100.00;95190.41;5085435;28;20238;-63
2023/06/19 05:37:06;;;;;;;1999.90;999.90;;;;;;;21.82;100.00;95193.09;5085440;28;20185;-63
2023/06/19 05:39:32;;;;;;;1999.90;999.90;;;;;;;21.89;100.00;95201.03;5085970;28;20201;-63
2023/06/19 05:41:57;;;;;;;1999.90;999.90;;;;;;;21.99;100.00;95196.91;5085706;28;20201;-62
2023/06/19 05:44:22;;;;;;;1999.90;999.90;;;;;;;22.01;100.00;95200.00;5085302;28;20197;-63
2023/06/19 05:46:48;;;;;;;1999.90;999.90;;;;;;;22.04;100.00;95215.69;5085157;28;20197;-63
2023/06/19 05:49:13;;;;;;;1999.90;999.90;;;;;;;22.05;100.00;95208.13;5085440;28;20216;-63
2023/06/19 05:51:38;;;;;;;1999.90;999.90;;;;;;;22.11;100.00;95215.31;5085266;28;20224;-63
2023/06/19 05:54:04;;;;;;;1999.90;999.90;;;;;;;22.15;100.00;95223.47;5084960;28;20217;-61
2023/06/19 05:56:30;;;;;;;1999.90;999.90;;;;;;;22.13;100.00;95223.94;5086194;28;20193;-62
2023/06/19 05:58:56;;;;;;;1999.90;999.90;;;;;;;22.15;100.00;95227.00;5084886;28;20224;-62
2023/06/19 06:01:21;;;;;;;1999.90;999.90;;;;;;;22.15;100.00;95224.22;5084903;28;20224;-62
2023/06/19 06:03:46;;;;;;;1999.90;999.90;;;;;;;22.20;100.00;95223.56;5085025;28;20224;-61
2023/06/19 06:06:12;;;;;;;1999.90;999.90;;;;;;;22.20;100.00;95231.91;5085244;28;20218;-63
2023/06/19 06:08:37;;;;;;;1999.90;999.90;;;;;;;22.23;100.00;95228.16;5084624;28;20177;-62
2023/06/19 06:11:03;;;;;;;1999.90;999.90;;;;;;;22.25;100.00;95234.00;5084711;28;20215;-61
2023/06/19 06:13:28;;;;;;;1999.90;999.90;;;;;;;22.31;100.00;95232.06;5084307;28;20209;-62
2023/06/19 06:15:53;;;;;;;1999.90;999.90;;;;;;;22.39;100.00;95232.41;5084956;28;20232;-62
2023/06/19 06:18:19;;;;;;;1999.90;999.90;;;;;;;22.54;100.00;95232.44;5084703;28;20201;-61
2023/06/19 06:20:44;;;;;;;1999.90;999.90;;;;;;;22.64;100.00;95234.59;5084611;28;20212;-62
2023/06/19 06:23:10;;;;;;;1999.90;999.90;;;;;;;22.79;100.00;95235.28;5084310;28;20196;-62
2023/06/19 06:25:35;;;;;;;1999.90;999.90;;;;;;;22.93;100.00;95239.25;5084362;28;20197;-62
2023/06/19 06:33:07;;;;;;;1999.90;999.90;;;;;;;23.46;100.00;95248.84;5082849;23;20274;-66
2023/06/19 06:35:34;;;;;;;1999.90;999.90;;;;;;;23.62;100.00;95239.09;5084212;28;20220;-67
2023/06/19 06:37:59;;;;;;;1999.90;999.90;;;;;;;23.62;100.00;95239.09;5084378;28;20190;-66
2023/06/19 06:40:25;;;;;;;1999.90;999.90;;;;;;;23.80;100.00;95247.13;5084232;28;20192;-66
2023/06/19 06:42:50;;;;;;;1999.90;999.90;;;;;;;23.97;100.00;95253.69;5084391;28;20189;-66
2023/06/19 06:45:16;;;;;;;1999.90;999.90;;;;;;;24.21;100.00;95252.09;5084620;28;20161;-67
2023/06/19 06:47:41;;;;;;;1999.90;999.90;;;;;;;24.56;100.00;95263.03;5084629;28;20193;-66
2023/06/19 06:50:08;;;;;;;1999.90;999.90;;;;;;;25.17;100.00;95272.59;5083759;28;20223;-66
2023/06/19 06:52:33;;;;;;;1999.90;999.90;;;;;;;25.98;100.00;95270.59;5083720;28;20193;-66
2023/06/19 06:54:58;;;;;;;1999.90;999.90;;;;;;;26.43;100.00;95279.78;5083843;28;20201;-66
2023/06/19 06:57:24;;;;;;;1999.90;999.90;;;;;;;26.81;100.00;95270.63;5083859;28;20239;-66
2023/06/19 06:59:50;;;;;;;1999.90;999.90;;;;;;;27.15;100.00;95275.66;5084105;28;20235;-66
2023/06/19 07:02:15;;;;;;;1999.90;999.90;;;;;;;27.46;97.76;95272.50;5084002;28;20225;-66
2023/06/19 07:04:41;;;;;;;1999.90;999.90;;;;;;;27.49;96.00;95285.50;5083955;28;20189;-66
2023/06/19 07:07:08;;;;;;;1999.90;999.90;;;;;;;27.56;94.81;95276.53;5083861;28;20255;-65
2023/06/19 07:09:33;;;;;;;1999.90;999.90;;;;;;;27.50;95.83;95283.47;5083975;28;20185;-66
2023/06/19 07:11:59;;;;;;;1999.90;999.90;;;;;;;27.42;97.24;95283.22;5083891;28;20214;-65
2023/06/19 07:14:24;;;;;;;1999.90;999.90;;;;;;;27.37;98.16;95286.81;5083603;28;20197;-65
2023/06/19 07:16:50;;;;;;;1999.90;999.90;;;;;;;27.11;100.00;95280.75;5083817;28;20196;-65
2023/06/19 07:19:15;;;;;;;1999.90;999.90;;;;;;;27.21;100.00;95290.44;5084208;28;20196;-65
2023/06/19 07:21:41;;;;;;;1999.90;999.90;;;;;;;27.54;98.48;95290.31;5083695;28;20199;-65
2023/06/19 07:24:07;;;;;;;1999.90;999.90;;;;;;;28.77;87.01;95279.84;5083278;28;20200;-65
2023/06/19 07:26:32;;;;;;;1999.90;999.90;;;;;;;30.15;74.80;95282.63;5083636;28;20192;-66
2023/06/19 07:28:58;;;;;;;1999.90;999.90;;;;;;;30.50;69.30;95284.41;5083651;28;20310;-66
2023/06/19 07:31:23;;;;;;;1999.90;999.90;;;;;;;31.06;67.31;95285.00;5083704;28;20283;-66
2023/06/19 07:33:49;;;;;;;1999.90;999.90;;;;;;;32.22;61.77;95291.19;5083687;28;20209;-66
2023/06/19 07:36:15;;;;;;;1999.90;999.90;;;;;;;31.83;61.40;95289.19;5083583;28;20189;-67
2023/06/19 07:41:07;;;;;;;1999.90;999.90;;;;;;;30.38;68.62;95288.69;5152167;22;20296;-60
2023/06/19 07:43:32;;;;;;;1999.90;999.90;;;;;;;30.30;70.46;95282.16;5083739;28;20439;-61
2023/06/19 07:45:58;;;;;;;1999.90;999.90;;;;;;;31.20;66.27;95286.53;5084055;28;20294;-60
2023/06/19 07:48:24;;;;;;;1999.90;999.90;;;;;;;30.91;66.86;95290.41;5083751;28;20228;-60
2023/06/19 07:50:49;;;;;;;1999.90;999.90;;;;;;;30.79;68.13;95289.84;5083242;28;20289;-60
2023/06/19 07:53:14;;;;;;;1999.90;999.90;;;;;;;31.24;64.83;95289.78;5083487;28;20219;-61
2023/06/19 07:55:41;;;;;;;1999.90;999.90;;;;;;;32.02;61.37;95294.69;5083879;28;20165;-60
2023/06/19 07:58:07;;;;;;;1999.90;999.90;;;;;;;32.44;58.13;95290.69;5083337;28;20185;-61
2023/06/19 08:00:32;;;;;;;1999.90;999.90;;;;;;;32.49;57.98;95295.47;5083637;28;20276;-61
2023/06/19 08:02:58;;;;;;;1999.90;999.90;;;;;;;33.56;53.49;95286.03;5083851;28;20200;-61
2023/06/19 08:05:23;;;;;;;1999.90;999.90;;;;;;;34.73;48.96;95286.16;5083279;28;20188;-61
2023/06/19 08:11:07;;;;;;;1999.90;999.90;;;;;;;35.61;45.35;95297.34;5128461;22;20244;-59
2023/06/19 08:13:32;;;;;;;1999.90;999.90;;;;;;;35.42;46.21;95296.97;5083744;28;20213;-58
2023/06/19 08:15:57;;;;;;;1999.90;999.90;;;;;;;35.18;45.58;95303.22;5083153;28;20192;-58
2023/06/19 08:23:19;;;;;;;1999.90;999.90;;;;;;;35.20;43.52;95311.94;5043017;28;20226;-69
2023/06/19 08:25:44;;;;;;;1999.90;999.90;;;;;;;34.00;48.20;95314.44;5026617;28;20275;-69
2023/06/19 08:31:32;;;;;;;1999.90;999.90;;;;;;;32.58;56.14;95312.72;5138022;22;20275;-62
2023/06/19 08:33:57;;;;;;;1999.90;999.90;;;;;;;32.12;57.36;95299.34;5083103;28;20189;-61
2023/06/19 08:36:23;;;;;;;1999.90;999.90;;;;;;;31.84;60.19;95304.84;5085830;28;20192;-61
2023/06/19 08:38:49;;;;;;;1999.90;999.90;;;;;;;30.93;63.02;95299.88;5086737;28;20189;-61
2023/06/19 08:41:21;;;;;;;1999.90;999.90;;;;;;;31.43;62.18;95301.81;5086609;28;20193;-61
2023/06/19 08:46:21;;;;;;;1999.90;999.90;;;;;;;33.57;55.30;95292.44;5085078;23;20220;-55
2023/06/19 08:48:47;;;;;;;1999.90;999.90;;;;;;;34.58;50.73;95292.53;5086690;28;20216;-55
2023/06/19 08:56:15;;;;;;;1999.90;999.90;;;;;;;36.06;43.37;95306.56;5026248;28;20226;-67
2023/06/19 08:58:41;;;;;;;1999.90;999.90;;;;;;;35.26;45.88;95298.31;5043151;28;20230;-67
2023/06/19 09:01:06;;;;;;;1999.90;999.90;;;;;;;35.23;46.09;95293.75;5043526;28;20167;-68
2023/06/19 09:03:31;;;;;;;1999.90;999.90;;;;;;;35.98;44.50;95293.69;5042784;28;20220;-68
2023/06/19 09:06:02;;;;;;;1999.90;999.90;;;;;;;35.14;46.01;95288.66;5042819;28;20195;-67
2023/06/19 09:08:27;;;;;;;1999.90;999.90;;;;;;;35.99;43.71;95283.81;5043293;28;20199;-67
2023/06/19 09:10:57;;;;;;;1999.90;999.90;;;;;;;36.10;44.00;95283.38;5026178;28;20206;-67
2023/06/19 09:13:23;;;;;;;1999.90;999.90;;;;;;;35.63;46.18;95271.94;5043167;28;20202;-67
2023/06/19 09:15:58;;;;;;;1999.90;999.90;;;;;;;35.45;45.93;95275.94;5042587;28;20218;-67
2023/06/19 09:18:24;;;;;;;1999.90;999.90;;;;;;;34.47;46.92;95283.59;5042754;28;20201;-66
2023/06/19 09:20:54;;;;;;;1999.90;999.90;;;;;;;33.78;48.46;95285.38;5026382;28;20195;-66
2023/06/19 09:23:19;;;;;;;1999.90;999.90;;;;;;;33.46;48.79;95278.56;5042741;28;20215;-67
2023/06/19 09:25:53;;;;;;;1999.90;999.90;;;;;;;34.02;46.88;95283.44;5026283;28;20274;-67
2023/06/19 09:28:28;;;;;;;1999.90;999.90;;;;;;;34.39;45.98;95291.34;5042401;28;20294;-68
2023/06/19 09:30:56;;;;;;;1999.90;999.90;;;;;;;33.39;47.82;95290.63;5042362;28;20199;-67
2023/06/19 09:33:21;;;;;;;1999.90;999.90;;;;;;;33.44;48.51;95281.22;5042273;28;20194;-67
2023/06/19 09:35:49;;;;;;;1999.90;999.90;;;;;;;33.44;49.33;95272.72;5042283;28;20199;-67
2023/06/19 09:38:16;;;;;;;1999.90;999.90;;;;;;;32.63;50.79;95280.69;5042438;28;20273;-67
2023/06/19 09:40:46;;;;;;;1999.90;999.90;;;;;;;32.81;50.85;95274.06;5042660;28;20241;-67
2023/06/19 09:43:18;;;;;;;1999.90;999.90;;;;;;;34.00;50.00;95266.97;5042121;28;20242;-68
2023/06/19 09:45:46;;;;;;;1999.90;999.90;;;;;;;34.65;46.67;95269.09;5025638;28;20270;-67
2023/06/19 09:48:18;;;;;;;1999.90;999.90;;;;;;;34.25;48.08;95258.75;5025830;28;20199;-68
2023/06/19 09:50:45;;;;;;;1999.90;999.90;;;;;;;34.96;46.76;95269.91;5042703;28;20206;-67
2023/06/19 09:53:11;;;;;;;1999.90;999.90;;;;;;;34.61;47.55;95274.38;5056656;28;20198;-67
2023/06/19 09:55:37;;;;;;;1999.90;999.90;;;;;;;34.90;47.57;95263.63;5045198;28;20194;-66
2023/06/19 09:58:05;;;;;;;1999.90;999.90;;;;;;;34.96;46.62;95267.81;5045086;28;20255;-67
2023/06/19 10:00:32;;;;;;;1999.90;999.90;;;;;;;34.78;46.28;95271.00;5045047;28;20222;-66
2023/06/19 10:08:44;;;;;;;1999.90;999.90;;;;;;;35.17;47.48;95268.38;5079456;23;20225;-58
2023/06/19 10:11:10;;;;;;;1999.90;999.90;;;;;;;35.66;47.39;95257.34;5085109;28;20264;-58
2023/06/19 10:13:41;;;;;;;1999.90;999.90;;;;;;;35.24;47.53;95258.31;5101747;28;20193;-58
2023/06/19 10:16:07;;;;;;;1999.90;999.90;;;;;;;34.99;47.11;95263.09;5084867;28;20189;-58
2023/06/19 10:18:46;;;;;;;1999.90;999.90;;;;;;;35.47;45.59;95256.97;5152424;22;20185;-70
2023/06/19 10:21:19;;;;;;;1999.90;999.90;;;;;;;36.07;45.45;95258.91;5075349;22;20240;-62
2023/06/19 10:27:07;;;;;;;1999.90;999.90;;;;;;;36.58;44.51;95264.94;5141702;22;20373;-62
2023/06/19 10:29:41;;;;;;;1999.90;999.90;;;;;;;37.36;41.91;95257.53;5084738;28;20209;-62
2023/06/19 10:32:07;;;;;;;1999.90;999.90;;;;;;;36.82;43.15;95255.69;5101528;28;20188;-63
2023/06/19 10:34:36;;;;;;;1999.90;999.90;;;;;;;36.22;45.83;95261.69;5085256;28;20238;-62
2023/06/19 10:37:02;;;;;;;1999.90;999.90;;;;;;;36.94;44.10;95262.44;5084489;28;20238;-62
2023/06/19 10:39:27;;;;;;;1999.90;999.90;;;;;;;37.26;42.19;95262.41;5101957;28;20161;-63
2023/06/19 10:41:53;;;;;;;1999.90;999.90;;;;;;;36.40;43.75;95261.25;5101513;28;20200;-62
2023/06/19 10:44:18;;;;;;;1999.90;999.90;;;;;;;34.62;48.81;95252.44;5101367;28;20205;-62
2023/06/19 10:46:43;;;;;;;1999.90;999.90;;;;;;;34.20;50.99;95251.16;5101099;28;20242;-62
2023/06/19 10:49:11;;;;;;;1999.90;999.90;;;;;;;35.18;48.13;95243.56;5084096;28;20224;-62
2023/06/19 10:51:38;;;;;;;1999.90;999.90;;;;;;;34.97;49.02;95243.78;5101355;28;20197;-61
2023/06/19 10:54:04;;;;;;;1999.90;999.90;;;;;;;35.98;46.40;95240.38;5101099;28;20196;-62
2023/06/19 10:56:29;;;;;;;1999.90;999.90;;;;;;;35.77;46.48;95247.66;5084061;28;20272;-62
2023/06/19 10:59:03;;;;;;;1999.90;999.90;;;;;;;36.13;45.36;95242.41;5083562;28;20185;-61
2023/06/19 11:01:50;;;;;;;1999.90;999.90;;;;;;;37.13;43.04;95236.25;5100945;28;20296;-63
2023/06/19 11:04:15;;;;;;;1999.90;999.90;;;;;;;36.67;42.44;95238.69;5101355;28;20199;-61
2023/06/19 11:06:43;;;;;;;1999.90;999.90;;;;;;;36.43;43.22;95242.25;5084153;28;20193;-62
2023/06/19 11:09:10;;;;;;;1999.90;999.90;;;;;;;35.48;46.09;95224.41;5100800;28;20273;-62
2023/06/19 11:11:42;;;;;;;1999.90;999.90;;;;;;;35.49;45.95;95225.91;5083617;28;20262;-62
2023/06/19 11:14:09;;;;;;;1999.90;999.90;;;;;;;36.61;43.73;95229.59;5100733;28;20198;-63
2023/06/19 11:16:37;;;;;;;1999.90;999.90;;;;;;;37.26;41.38;95213.94;5083759;28;20193;-63
2023/06/19 11:19:03;;;;;;;1999.90;999.90;;;;;;;37.51;40.45;95217.47;5100748;28;20223;-62
2023/06/19 11:21:39;;;;;;;1999.90;999.90;;;;;;;36.95;41.78;95217.63;5083952;28;20189;-63
2023/06/19 11:24:11;;;;;;;1999.90;999.90;;;;;;;37.76;39.31;95209.59;5100491;28;20205;-62
2023/06/19 11:26:43;;;;;;;1999.90;999.90;;;;;;;37.93;37.80;95206.72;5090752;28;20207;-62
2023/06/19 11:29:16;;;;;;;1999.90;999.90;;;;;;;37.34;39.52;95208.13;5063570;28;20201;-62
2023/06/19 11:31:41;;;;;;;1999.90;999.90;;;;;;;36.09;41.03;95207.91;5064058;28;20201;-62
2023/06/19 11:34:07;;;;;;;1999.90;999.90;;;;;;;36.28;41.98;95213.88;5063540;28;20207;-62
2023/06/19 11:36:32;;;;;;;1999.90;999.90;;;;;;;36.42;41.40;95206.59;5063295;28;20200;-62
2023/06/19 11:38:58;;;;;;;1999.90;999.90;;;;;;;36.63;41.40;95204.13;5063537;28;20264;-62
2023/06/19 11:41:28;;;;;;;1999.90;999.90;;;;;;;35.24;44.68;95202.25;5063917;28;20190;-62
2023/06/19 11:44:02;;;;;;;1999.90;999.90;;;;;;;33.69;50.17;95191.63;5063831;28;20206;-61
2023/06/19 11:46:29;;;;;;;1999.90;999.90;;;;;;;32.52;53.24;95189.69;5063503;28;20193;-62
2023/06/19 11:49:06;;;;;;;1999.90;999.90;;;;;;;33.19;53.38;95193.03;5063398;28;20197;-62
2023/06/19 11:51:31;;;;;;;1999.90;999.90;;;;;;;32.13;55.69;95193.44;5063901;28;20173;-62
2023/06/19 11:53:57;;;;;;;1999.90;999.90;;;;;;;31.32;60.56;95194.72;5063471;28;20194;-62
2023/06/19 11:56:22;;;;;;;1999.90;999.90;;;;;;;30.99;62.39;95195.34;5063789;28;20221;-61